Ekalaka, MT (59324)

1:16 PM MST on February 11, 2016 (GMT -0700)
Box Elder Valley | | Change Station
CLOSE
Current Station
Personal Weather Station
Location: Ekalaka, MT
Elevation: 3136 ft
Nearby Weather Stations

Elev 3136 ft 45.74 °N, 104.33 °W | Updated 15 minutes ago

Mostly Cloudy
Mostly Cloudy
45.8 °F
Feels Like 42 °F
N
8.0
Wind Variable Wind from NW
Gusts 26.0 mph

Today
High -- | Low -- °F
--% Chance of Precip.
Yesterday
High -- | Low -- °F
Precip. -- in
Pressure 30.15 in
Visibility 9.0 miles
Clouds Overcast 800 ft
Windchill 42 °F
Dew Point 33 °F
Humidity 60%
Rainfall 0.00 in
Snow Depth Not available.
7:07 AM 5:18 PM
Waxing Crescent, 14% visible
METAR KBHK 111951Z AUTO 32013KT 9SM OVC008 01/M02 A3007 RMK AO2 SLP209 T00111017
Pressure 30.15 in
Visibility 9.0 miles
Clouds Overcast 800 ft
Windchill 42 °F
Dew Point 33 °F
Humidity 60%
Rainfall 0.00 in
Snow Depth Not available.
7:07 AM 5:18 PM
Waxing Crescent, 14% visible
METAR KBHK 111951Z AUTO 32013KT 9SM OVC008 01/M02 A3007 RMK AO2 SLP209 T00111017

10-Day Weather Forecast

Almanac

Astronomy

Feb. 11, 2016 Rise Set
Actual Time
Civil Twilight
Nautical Twilight
Astronomical Twilight
Moon
Length of Visible Light
Length of Day
Tomorrow will be .
, % of the Moon is Illuminated

Today's Extremes

State Highs State Lows

Community

WunderPhotos

Upload Photos

1,892,146 photos uploaded!

WunderBlog® & News

Nearby

Air Quality

  Air Quality AQ Index Pollutant
Not available.

Snow Depth

Station Depth Elevation

Earthquake Activity

City Distance Mag. Time & Date
Minimum magnitude displayed is 2.5.

Coastal Water Temperatures

Place Temperature

Stations

Nearby Weather Stations

Station Location Temp. Windchill Dew Point Humidity Wind Precip. Elev Updated Type
                   

Watches & Warnings

There are currently no watches in effect.